Time;durP1;ratioP1;P1;durP2;ratioP2;P2;SDS_P1;SDS_P2;PMS_P1;PMS_P2;Temp;Humidity;BMP_temperature;BMP_pressure;BME280_temperature;BME280_humidity;BME280_pressure;Samples;Min_cycle;Max_cycle;Signal;HPM_P1;HPM_P2
2023/03/03 00:01:44;;;;;;;12.20;10.00;;;;;;;5.37;56.03;102120.02;107009;1268;25363;-49
2023/03/03 00:04:13;;;;;;;12.20;9.10;;;;;;;5.38;56.24;102115.77;107057;1268;25494;-49
2023/03/03 00:06:44;;;;;;;11.60;9.20;;;;;;;5.40;56.20;102107.71;106918;1268;25345;-49
2023/03/03 00:09:12;;;;;;;11.00;9.60;;;;;;;5.41;56.19;102107.57;106967;1268;22754;-49
2023/03/03 00:11:45;;;;;;;15.30;10.10;;;;;;;5.42;56.14;102102.09;106875;1275;25428;-49
2023/03/03 00:14:21;;;;;;;12.50;10.70;;;;;;;5.40;56.12;102096.71;106091;1269;1002883;-49
2023/03/03 00:16:50;;;;;;;16.10;10.60;;;;;;;5.38;56.17;102090.31;106920;1268;22520;-49
2023/03/03 00:19:19;;;;;;;13.00;10.60;;;;;;;5.37;56.31;102089.06;106114;1270;1003524;-49
2023/03/03 00:21:48;;;;;;;11.10;9.60;;;;;;;5.37;56.47;102086.83;106889;1269;25228;-49
2023/03/03 00:24:20;;;;;;;11.70;9.80;;;;;;;5.39;56.72;102082.23;106879;1269;22698;-49
2023/03/03 00:26:50;;;;;;;14.20;9.50;;;;;;;5.41;56.85;102078.64;106864;1272;22608;-49
2023/03/03 00:29:29;;;;;;;14.10;10.00;;;;;;;5.44;57.00;102074.23;106955;1268;25300;-49
2023/03/03 00:32:14;;;;;;;14.90;10.30;;;;;;;5.44;57.13;102066.85;106951;1268;24241;-49
2023/03/03 00:34:43;;;;;;;21.20;11.40;;;;;;;5.45;57.24;102063.24;106891;1259;25442;-49
2023/03/03 00:37:30;;;;;;;14.60;9.70;;;;;;;5.47;57.32;102062.96;107079;1270;24213;-50
2023/03/03 00:40:22;;;;;;;12.90;9.80;;;;;;;5.49;57.40;102056.27;106984;1268;22524;-49
2023/03/03 00:42:55;;;;;;;15.90;10.70;;;;;;;5.52;57.33;102054.79;106774;1275;22543;-49
2023/03/03 00:45:49;;;;;;;15.00;9.90;;;;;;;5.53;57.41;102051.19;106227;1268;1002980;-49
2023/03/03 00:48:20;;;;;;;12.30;9.50;;;;;;;5.53;57.45;102054.98;106086;1273;1003435;-49
2023/03/03 00:50:49;;;;;;;14.50;10.80;;;;;;;5.53;57.37;102050.33;106986;1269;22631;-49
2023/03/03 00:53:19;;;;;;;14.60;10.80;;;;;;;5.52;57.60;102046.52;107023;1268;23135;-49
2023/03/03 00:55:48;;;;;;;13.00;10.00;;;;;;;5.52;57.63;102042.21;106962;1268;24280;-49
2023/03/03 00:58:20;;;;;;;13.90;10.20;;;;;;;5.51;57.64;102044.62;107004;1268;22541;-48
2023/03/03 01:00:51;;;;;;;13.60;9.90;;;;;;;5.48;57.72;102044.38;107005;1269;24256;-48
2023/03/03 01:03:23;;;;;;;16.60;11.90;;;;;;;5.41;57.90;102041.14;106963;1269;22743;-49
2023/03/03 01:05:52;;;;;;;19.20;12.10;;;;;;;5.31;58.29;102039.03;106845;1268;25360;-50
2023/03/03 01:08:21;;;;;;;17.00;12.60;;;;;;;5.22;58.57;102038.52;106961;1272;22551;-49
2023/03/03 01:10:55;;;;;;;15.50;11.80;;;;;;;5.18;59.06;102041.35;107017;1269;22531;-49
2023/03/03 01:13:32;;;;;;;15.40;11.30;;;;;;;5.16;59.15;102043.72;106201;1268;1003080;-49
2023/03/03 01:16:00;;;;;;;16.60;12.30;;;;;;;5.10;59.30;102041.18;106878;1269;25277;-49
2023/03/03 01:18:30;;;;;;;16.60;11.20;;;;;;;5.05;59.30;102041.23;106789;1270;22527;-49
2023/03/03 01:20:58;;;;;;;15.50;11.50;;;;;;;5.02;59.44;102037.92;106924;1268;25354;-49
2023/03/03 01:23:27;;;;;;;15.10;11.90;;;;;;;4.98;59.65;102032.17;106355;1268;1003649;-49
2023/03/03 01:25:56;;;;;;;20.70;13.40;;;;;;;4.94;59.73;102028.66;106800;1269;24250;-49
2023/03/03 01:28:25;;;;;;;15.80;11.70;;;;;;;4.92;60.00;102029.29;106222;1268;1002380;-49
2023/03/03 01:30:53;;;;;;;13.50;11.80;;;;;;;4.92;60.02;102029.80;106435;1269;25405;-49
2023/03/03 01:33:22;;;;;;;14.30;11.90;;;;;;;4.91;60.09;102030.98;106236;1269;1003438;-49
2023/03/03 01:35:51;;;;;;;17.90;13.90;;;;;;;4.91;60.06;102031.66;106914;1269;22533;-49
2023/03/03 01:38:19;;;;;;;19.30;14.10;;;;;;;4.86;60.05;102036.21;106809;1269;22605;-49
2023/03/03 01:40:58;;;;;;;18.30;13.30;;;;;;;4.82;60.35;102033.02;106191;1275;1015221;-50
2023/03/03 01:43:29;;;;;;;18.50;12.60;;;;;;;4.81;60.46;102034.39;106806;1276;25317;-49
2023/03/03 01:45:58;;;;;;;17.30;13.30;;;;;;;4.81;60.31;102031.46;106276;1268;1016272;-49
2023/03/03 01:48:33;;;;;;;17.90;13.40;;;;;;;4.80;60.47;102032.30;106973;1268;24699;-49
2023/03/03 01:51:04;;;;;;;18.80;13.90;;;;;;;4.80;60.41;102031.42;106073;1269;1003831;-49
2023/03/03 01:53:53;;;;;;;16.60;13.40;;;;;;;4.81;60.62;102026.13;106845;1269;25338;-49
2023/03/03 01:56:22;;;;;;;21.50;14.30;;;;;;;4.79;60.56;102022.13;106280;1267;1002721;-49
2023/03/03 01:58:52;;;;;;;18.30;13.90;;;;;;;4.77;60.83;102018.32;106919;1269;22398;-49
2023/03/03 02:01:23;;;;;;;17.50;13.70;;;;;;;4.78;60.96;102016.42;106735;1273;22523;-48
2023/03/03 02:03:54;;;;;;;18.90;13.60;;;;;;;4.81;61.05;102013.08;106969;1268;24366;-50
2023/03/03 02:06:26;;;;;;;18.10;13.80;;;;;;;4.87;60.96;102011.63;106889;1273;25356;-48
2023/03/03 02:08:59;;;;;;;;;;;;;;;4.91;60.94;102008.64;106767;1271;22543;-48
2023/03/03 02:11:27;;;;;;;19.60;14.50;;;;;;;4.94;60.85;102011.12;106269;1268;1003110;-49
2023/03/03 02:13:56;;;;;;;18.40;13.90;;;;;;;4.94;60.93;102010.27;106806;1269;24375;-49
2023/03/03 02:16:28;;;;;;;17.00;12.40;;;;;;;4.98;61.10;102007.40;106898;1268;25342;-49
2023/03/03 02:18:56;;;;;;;16.10;13.40;;;;;;;5.05;60.89;102008.40;106949;1268;22539;-50
2023/03/03 02:21:26;;;;;;;17.20;13.80;;;;;;;5.08;60.76;102006.06;106262;1269;1002790;-49
2023/03/03 02:24:19;;;;;;;15.40;13.30;;;;;;;5.10;60.69;102007.98;106438;1270;25328;-49
2023/03/03 02:26:55;;;;;;;17.70;13.20;;;;;;;5.10;60.68;102003.16;105936;1279;1002871;-49
2023/03/03 02:29:23;;;;;;;16.70;13.00;;;;;;;5.09;60.62;102004.02;106767;1270;25402;-49
2023/03/03 02:31:52;;;;;;;18.10;13.40;;;;;;;5.09;60.68;102004.36;106979;1270;25350;-49
2023/03/03 02:34:21;;;;;;;15.90;12.80;;;;;;;5.09;60.69;101999.20;106820;1270;25360;-48
2023/03/03 02:36:50;;;;;;;18.50;13.20;;;;;;;5.12;60.58;101996.16;106774;1270;24244;-48
2023/03/03 02:39:21;;;;;;;16.20;12.80;;;;;;;5.13;60.44;101993.27;106811;1272;24272;-49
2023/03/03 02:42:11;;;;;;;16.50;13.50;;;;;;;5.13;60.30;101989.14;106001;1270;1002970;-49
2023/03/03 02:44:47;;;;;;;18.30;14.30;;;;;;;5.12;60.31;101992.55;105988;1270;1003268;-49
2023/03/03 02:47:16;;;;;;;24.30;14.80;;;;;;;5.10;60.17;101992.52;106818;1260;24186;-49
2023/03/03 02:49:45;;;;;;;19.00;14.80;;;;;;;5.08;60.30;101987.15;106614;1275;25341;-49
2023/03/03 02:52:16;;;;;;;18.10;13.70;;;;;;;5.06;60.29;101980.05;106802;1259;25367;-49
2023/03/03 02:54:46;;;;;;;22.20;14.60;;;;;;;5.05;60.35;101975.90;106873;1270;24509;-49
2023/03/03 02:57:15;;;;;;;20.70;14.70;;;;;;;5.05;60.40;101972.64;106404;1269;1003404;-49
2023/03/03 02:59:43;;;;;;;19.60;14.60;;;;;;;5.03;60.20;101972.42;106906;1268;25367;-49
2023/03/03 03:02:14;;;;;;;20.50;14.10;;;;;;;5.02;60.37;101968.28;106175;1268;1003718;-49
2023/03/03 03:04:42;;;;;;;22.90;16.00;;;;;;;5.03;60.48;101971.39;106941;1268;22790;-49
2023/03/03 03:07:13;;;;;;;21.60;14.60;;;;;;;5.06;60.61;101965.44;106880;1268;25447;-50
2023/03/03 03:09:45;;;;;;;23.00;14.40;;;;;;;5.10;60.46;101964.30;106201;1271;1002935;-49
2023/03/03 03:12:14;;;;;;;18.90;14.90;;;;;;;5.15;60.37;101960.63;106877;1269;22642;-49
2023/03/03 03:14:43;;;;;;;18.00;14.20;;;;;;;5.18;60.14;101957.23;106098;1269;1003550;-49
2023/03/03 03:17:12;;;;;;;20.40;14.90;;;;;;;5.19;59.99;101955.38;106941;1268;24358;-49
2023/03/03 03:19:41;;;;;;;21.80;15.90;;;;;;;5.20;59.91;101956.92;106976;1268;25399;-48
2023/03/03 03:22:09;;;;;;;22.70;16.20;;;;;;;5.20;59.95;101953.67;106997;1268;25360;-49
2023/03/03 03:24:38;;;;;;;21.30;14.50;;;;;;;5.21;59.88;101955.06;106765;1271;25370;-50
2023/03/03 03:27:08;;;;;;;20.70;14.60;;;;;;;5.21;59.97;101953.00;106949;1268;22530;-49
2023/03/03 03:29:38;;;;;;;22.30;15.00;;;;;;;5.21;59.97;101955.05;106964;1268;25353;-49
2023/03/03 03:32:08;;;;;;;20.10;13.20;;;;;;;5.20;59.91;101951.77;106938;1268;24903;-49
2023/03/03 03:34:37;;;;;;;20.90;15.30;;;;;;;5.19;59.97;101948.64;107005;1268;25373;-49
2023/03/03 03:37:08;;;;;;;18.30;14.40;;;;;;;5.17;59.91;101946.55;106933;1268;25324;-48
2023/03/03 03:39:57;;;;;;;21.10;14.90;;;;;;;5.16;60.10;101945.34;106722;1269;25406;-50
2023/03/03 03:42:27;;;;;;;19.70;14.40;;;;;;;5.17;60.15;101944.16;106901;1269;22560;-49
2023/03/03 03:44:57;;;;;;;18.70;14.30;;;;;;;5.21;60.12;101944.91;106206;1268;1003242;-49
2023/03/03 03:47:26;;;;;;;20.70;13.90;;;;;;;5.25;59.95;101944.11;106830;1273;22540;-49
2023/03/03 03:49:55;;;;;;;21.90;14.10;;;;;;;5.29;59.48;101940.94;106969;1269;25339;-49
2023/03/03 03:52:24;;;;;;;20.70;14.40;;;;;;;5.30;59.33;101943.71;106279;1268;1015596;-48
2023/03/03 03:54:53;;;;;;;20.10;15.00;;;;;;;5.31;58.99;101942.70;106145;1273;1003483;-49
2023/03/03 03:57:21;;;;;;;19.50;13.70;;;;;;;5.30;59.00;101938.55;106151;1272;1003268;-50
2023/03/03 04:00:13;;;;;;;19.60;14.30;;;;;;;5.32;58.88;101937.70;106736;1273;22514;-49
2023/03/03 04:02:44;;;;;;;19.30;14.20;;;;;;;5.31;58.82;101936.15;106088;1269;1002959;-49
2023/03/03 04:05:14;;;;;;;22.70;14.90;;;;;;;5.28;58.65;101935.92;107013;1268;22523;-49
2023/03/03 04:07:43;;;;;;;19.40;14.30;;;;;;;5.23;58.67;101935.50;107030;1268;24221;-49
2023/03/03 04:10:11;;;;;;;20.60;14.10;;;;;;;5.19;58.63;101936.80;106866;1268;25353;-49
2023/03/03 04:12:40;;;;;;;23.20;14.80;;;;;;;5.17;58.58;101934.19;106982;1268;25349;-49
2023/03/03 04:15:15;;;;;;;21.40;13.90;;;;;;;5.17;58.53;101932.13;106941;1269;25373;-49
2023/03/03 04:17:44;;;;;;;20.00;13.80;;;;;;;5.18;58.27;101928.34;106843;1268;22582;-49
2023/03/03 04:20:14;;;;;;;17.90;14.40;;;;;;;5.19;57.98;101922.19;106905;1271;22518;-48
2023/03/03 04:22:43;;;;;;;17.20;13.10;;;;;;;5.21;57.72;101921.00;106829;1270;23875;-48
2023/03/03 04:25:14;;;;;;;18.90;14.00;;;;;;;5.22;57.47;101922.56;106990;1269;25360;-49
2023/03/03 04:27:43;;;;;;;19.70;14.60;;;;;;;5.20;57.42;101917.88;106834;1270;25503;-49
2023/03/03 04:30:13;;;;;;;20.90;14.90;;;;;;;5.19;57.40;101921.65;106815;1268;22645;-49
2023/03/03 04:32:42;;;;;;;23.30;16.00;;;;;;;5.17;57.43;101920.60;107024;1268;25544;-49
2023/03/03 04:35:12;;;;;;;23.90;16.00;;;;;;;5.16;57.56;101919.19;106928;1268;25361;-49
2023/03/03 04:37:42;;;;;;;22.10;15.70;;;;;;;5.17;57.52;101918.86;106244;1268;1003158;-48
2023/03/03 04:40:11;;;;;;;26.10;16.60;;;;;;;5.18;57.46;101921.48;106069;1269;1003190;-49
2023/03/03 04:42:40;;;;;;;28.30;17.60;;;;;;;5.20;57.41;101922.17;106842;1269;22539;-49
2023/03/03 04:45:13;;;;;;;22.10;16.10;;;;;;;5.20;57.25;101921.66;106757;1274;25482;-49
2023/03/03 04:47:42;;;;;;;27.20;16.90;;;;;;;5.19;57.16;101925.62;106972;1268;22644;-49
2023/03/03 04:50:11;;;;;;;26.60;18.00;;;;;;;5.18;57.04;101924.73;106806;1269;25361;-49
2023/03/03 04:52:42;;;;;;;27.80;17.40;;;;;;;5.18;56.86;101927.65;106979;1268;25325;-49
2023/03/03 04:55:13;;;;;;;25.10;19.40;;;;;;;5.18;56.75;101926.44;106995;1269;25370;-49
2023/03/03 04:57:42;;;;;;;33.40;21.20;;;;;;;5.19;56.76;101930.93;106978;1268;25544;-49
2023/03/03 05:00:14;;;;;;;32.70;19.80;;;;;;;5.20;56.85;101929.23;107010;1268;25347;-49
2023/03/03 05:02:46;;;;;;;29.80;19.90;;;;;;;5.21;56.91;101928.41;106128;1271;1003028;-49
2023/03/03 05:05:18;;;;;;;26.30;19.00;;;;;;;5.21;56.78;101930.64;106959;1268;25479;-49
2023/03/03 05:07:46;;;;;;;28.40;18.30;;;;;;;5.21;56.79;101930.98;106943;1268;25348;-49
2023/03/03 05:10:15;;;;;;;25.10;17.30;;;;;;;5.22;56.81;101932.19;106960;1268;25364;-49
2023/03/03 05:12:43;;;;;;;26.20;17.50;;;;;;;5.22;56.88;101931.86;106338;1269;1002898;-49
2023/03/03 05:18:37;;;;;;;27.00;17.40;;;;;;;5.32;56.77;101929.98;103713;1299;544815;-48
2023/03/03 05:21:06;;;;;;;26.60;18.40;;;;;;;5.33;56.71;101926.91;105271;1281;1003099;-49
2023/03/03 05:23:35;;;;;;;25.30;17.20;;;;;;;5.36;56.74;101931.25;106050;1282;25377;-49
2023/03/03 05:26:04;;;;;;;26.60;17.90;;;;;;;5.38;56.73;101931.98;105935;1285;25392;-50
2023/03/03 05:28:32;;;;;;;22.20;16.30;;;;;;;5.39;56.79;101931.31;105958;1283;22534;-48
2023/03/03 05:31:01;;;;;;;22.30;16.00;;;;;;;5.42;57.01;101933.10;106001;1272;1003122;-49
2023/03/03 05:33:30;;;;;;;20.80;15.40;;;;;;;5.46;57.32;101930.77;106634;1270;358047;-48
2023/03/03 05:35:58;;;;;;;27.70;15.60;;;;;;;5.53;57.48;101930.71;106773;1274;25359;-49
2023/03/03 05:38:30;;;;;;;20.90;14.40;;;;;;;5.61;57.51;101935.66;106836;1269;25463;-49
2023/03/03 05:40:59;;;;;;;19.70;14.00;;;;;;;5.69;57.67;101938.39;106890;1269;23203;-49
2023/03/03 05:43:28;;;;;;;17.60;13.40;;;;;;;5.76;57.69;101939.55;106760;1276;22527;-49
2023/03/03 05:45:57;;;;;;;30.40;15.70;;;;;;;5.83;57.77;101942.09;106228;1270;1003279;-49
2023/03/03 05:48:26;;;;;;;16.30;13.00;;;;;;;5.90;57.94;101938.77;106692;1269;24225;-48
2023/03/03 05:50:58;;;;;;;17.80;13.40;;;;;;;5.97;58.12;101938.36;106868;1271;25328;-49
2023/03/03 05:53:27;;;;;;;19.70;13.80;;;;;;;6.07;58.16;101935.59;106802;1259;22585;-48
2023/03/03 05:55:56;;;;;;;17.40;13.40;;;;;;;6.16;58.12;101935.90;106686;1270;22990;-49
2023/03/03 05:58:29;;;;;;;17.10;13.10;;;;;;;6.25;57.97;101933.63;106007;1273;1003201;-49
2023/03/03 06:00:58;;;;;;;18.90;13.70;;;;;;;6.31;57.70;101932.86;106101;1272;1003150;-48
2023/03/03 06:03:27;;;;;;;18.30;13.30;;;;;;;6.36;57.59;101926.73;106642;1275;25373;-48
2023/03/03 06:05:56;;;;;;;20.40;12.90;;;;;;;6.41;57.35;101929.04;107044;1269;25359;-48
2023/03/03 06:08:26;;;;;;;15.70;12.10;;;;;;;6.45;57.32;101931.49;107106;1270;25322;-48
2023/03/03 06:10:54;;;;;;;16.20;12.50;;;;;;;6.51;57.17;101928.65;106316;1267;1003025;-49
2023/03/03 06:13:23;;;;;;;18.20;12.40;;;;;;;6.57;57.08;101932.02;106269;1267;1003711;-48
2023/03/03 06:15:52;;;;;;;17.40;13.20;;;;;;;6.62;56.98;101937.58;107008;1269;25328;-50
2023/03/03 06:18:22;;;;;;;19.70;13.20;;;;;;;6.68;57.12;101933.18;107052;1267;25325;-48
2023/03/03 06:20:53;;;;;;;16.80;13.80;;;;;;;6.76;57.48;101927.25;107086;1267;25331;-48
2023/03/03 06:23:22;;;;;;;16.00;12.20;;;;;;;6.88;57.26;101922.06;107141;1256;22515;-49
2023/03/03 06:25:52;;;;;;;15.10;11.90;;;;;;;7.03;57.41;101921.54;107178;1268;22528;-48
2023/03/03 06:28:20;;;;;;;15.40;12.40;;;;;;;7.23;57.22;101920.03;107107;1269;25327;-48
2023/03/03 06:30:52;;;;;;;17.10;11.30;;;;;;;7.46;56.24;101918.18;107052;1269;25312;-48
2023/03/03 06:33:22;;;;;;;13.20;10.90;;;;;;;7.70;55.67;101914.61;107012;1269;25357;-48
2023/03/03 06:35:51;;;;;;;17.30;11.90;;;;;;;7.90;55.09;101914.08;107221;1269;25502;-48
2023/03/03 06:38:20;;;;;;;17.40;12.10;;;;;;;8.04;54.54;101914.54;107009;1272;24363;-48
2023/03/03 06:40:48;;;;;;;15.10;11.40;;;;;;;8.10;54.19;101915.09;106264;1268;1002835;-49
2023/03/03 06:43:17;;;;;;;16.30;11.60;;;;;;;8.11;54.25;101910.77;106604;1271;23864;-48
2023/03/03 06:45:45;;;;;;;16.40;12.60;;;;;;;8.11;54.25;101912.68;106682;1275;24232;-47
2023/03/03 06:48:20;;;;;;;18.50;12.00;;;;;;;8.12;54.50;101915.97;107028;1272;25334;-48
2023/03/03 06:50:49;;;;;;;14.80;11.40;;;;;;;8.13;54.35;101916.49;107097;1272;25322;-47
2023/03/03 06:53:18;;;;;;;15.10;11.90;;;;;;;8.15;54.48;101917.20;107046;1269;24255;-48
2023/03/03 06:55:47;;;;;;;15.60;12.20;;;;;;;8.18;54.43;101914.80;106713;1272;25415;-48
2023/03/03 06:58:17;;;;;;;14.50;11.80;;;;;;;8.22;54.37;101910.67;106329;1275;25328;-47
2023/03/03 07:00:55;;;;;;;17.00;11.70;;;;;;;8.29;54.37;101909.19;106904;1272;25561;-48
2023/03/03 07:03:27;;;;;;;13.70;11.00;;;;;;;8.36;54.30;101908.54;106757;1270;24279;-49
2023/03/03 07:05:56;;;;;;;14.80;11.20;;;;;;;8.44;54.24;101908.41;106444;1273;22520;-48
2023/03/03 07:08:24;;;;;;;14.30;11.80;;;;;;;8.53;54.09;101907.42;106731;1275;25363;-48
2023/03/03 07:10:54;;;;;;;14.60;11.50;;;;;;;8.64;54.09;101905.73;106730;1273;25347;-48
2023/03/03 07:13:27;;;;;;;14.40;11.10;;;;;;;8.76;53.90;101899.38;106655;1273;26503;-48
2023/03/03 07:15:58;;;;;;;15.10;11.70;;;;;;;8.86;54.08;101898.91;106323;1275;24372;-47
2023/03/03 07:18:36;;;;;;;14.60;11.50;;;;;;;8.98;54.05;101898.09;106369;1276;25456;-48
2023/03/03 07:21:18;;;;;;;13.70;10.80;;;;;;;9.09;54.01;101895.69;105944;1273;1003350;-48
2023/03/03 07:23:48;;;;;;;16.00;12.20;;;;;;;9.17;54.07;101888.08;106645;1277;24404;-48
2023/03/03 07:26:19;;;;;;;15.00;11.70;;;;;;;9.22;53.96;101889.30;106104;1272;1003336;-48
2023/03/03 07:28:55;;;;;;;14.50;12.00;;;;;;;9.26;53.96;101889.33;107015;1271;22517;-48
2023/03/03 07:31:37;;;;;;;12.60;11.30;;;;;;;9.28;53.94;101882.58;106967;1270;25363;-48
2023/03/03 07:34:38;;;;;;;14.60;11.70;;;;;;;9.32;54.28;101881.70;106783;1268;22787;-48
2023/03/03 07:37:16;;;;;;;13.70;12.10;;;;;;;9.39;54.25;101884.67;106868;1273;24241;-47
2023/03/03 07:39:44;;;;;;;17.40;12.30;;;;;;;9.46;54.04;101881.38;106496;1273;26487;-48
2023/03/03 07:42:20;;;;;;;15.40;11.80;;;;;;;9.50;54.04;101879.83;106783;1276;22653;-48
2023/03/03 07:44:56;;;;;;;13.30;11.30;;;;;;;9.51;53.93;101877.23;106807;1273;25366;-48
2023/03/03 07:47:33;;;;;;;14.90;11.00;;;;;;;9.52;54.10;101878.77;106690;1277;22530;-48
2023/03/03 07:50:28;;;;;;;13.00;11.20;;;;;;;9.54;53.98;101875.48;106611;1274;22520;-48
2023/03/03 07:52:58;;;;;;;13.60;11.70;;;;;;;9.56;53.97;101876.36;106331;1280;25310;-48
2023/03/03 07:55:34;;;;;;;13.30;10.60;;;;;;;9.60;54.14;101872.02;106079;1279;26501;-48
2023/03/03 07:58:15;;;;;;;14.40;11.10;;;;;;;9.65;54.03;101877.58;105589;1279;1003694;-48
2023/03/03 08:01:03;;;;;;;13.40;10.40;;;;;;;9.69;53.79;101875.67;106301;1276;25325;-48
2023/03/03 08:03:32;;;;;;;14.40;11.90;;;;;;;9.71;53.77;101877.92;106368;1277;22524;-49
2023/03/03 08:06:08;;;;;;;13.80;11.50;;;;;;;9.71;53.82;101878.09;106280;1284;25334;-46
2023/03/03 08:08:42;;;;;;;15.10;11.10;;;;;;;9.69;53.80;101874.29;106462;1282;24352;-47
2023/03/03 08:11:10;;;;;;;13.70;11.50;;;;;;;9.68;53.98;101874.98;106293;1282;24246;-49
2023/03/03 08:13:40;;;;;;;12.90;11.00;;;;;;;9.70;54.18;101874.45;106561;1276;25406;-49
2023/03/03 08:16:09;;;;;;;13.10;11.20;;;;;;;9.73;54.32;101871.52;105738;1279;1003216;-47
2023/03/03 08:18:46;;;;;;;13.80;10.90;;;;;;;9.77;54.45;101867.00;106468;1278;25416;-48
2023/03/03 08:21:21;;;;;;;12.30;11.00;;;;;;;9.84;54.47;101864.22;106423;1276;22530;-48
2023/03/03 08:23:52;;;;;;;14.90;11.80;;;;;;;9.88;54.36;101860.75;106550;1275;28780;-48
2023/03/03 08:26:20;;;;;;;15.90;12.40;;;;;;;9.91;54.42;101860.40;105568;1278;1003812;-49
2023/03/03 08:28:51;;;;;;;16.40;12.20;;;;;;;9.92;54.49;101862.11;106262;1283;24388;-49
2023/03/03 08:31:21;;;;;;;13.30;11.20;;;;;;;9.92;54.59;101861.27;106857;1275;25392;-49
2023/03/03 08:34:08;;;;;;;13.60;10.30;;;;;;;9.93;54.58;101859.52;106259;1275;1014904;-49
2023/03/03 08:36:41;;;;;;;11.60;9.90;;;;;;;9.95;54.24;101859.52;106334;1270;1003698;-49
2023/03/03 08:39:12;;;;;;;12.70;10.70;;;;;;;9.98;54.10;101857.09;106389;1273;1003489;-48
2023/03/03 08:41:42;;;;;;;11.90;10.60;;;;;;;10.01;54.15;101853.95;106226;1270;1002741;-48
2023/03/03 08:44:11;;;;;;;11.50;10.30;;;;;;;10.05;54.08;101851.17;106142;1269;1002999;-48
2023/03/03 08:46:39;;;;;;;9.90;8.80;;;;;;;10.08;53.94;101853.25;105994;1275;1002845;-48
2023/03/03 08:49:10;;;;;;;13.60;10.00;;;;;;;10.11;53.90;101852.42;107025;1271;25325;-48
2023/03/03 08:51:38;;;;;;;12.60;9.60;;;;;;;10.14;54.00;101849.29;107072;1269;25566;-47
2023/03/03 08:54:07;;;;;;;11.50;9.70;;;;;;;10.18;53.84;101848.41;107081;1272;25311;-48
2023/03/03 08:56:36;;;;;;;10.50;8.90;;;;;;;10.22;53.87;101845.64;107060;1275;22647;-48
2023/03/03 08:59:05;;;;;;;11.10;9.00;;;;;;;10.27;53.72;101839.36;106769;1270;25379;-48
2023/03/03 09:01:38;;;;;;;13.30;9.70;;;;;;;10.31;53.50;101833.29;106752;1270;25359;-48
2023/03/03 09:04:07;;;;;;;12.30;9.50;;;;;;;10.35;53.31;101832.75;106843;1270;24490;-48
2023/03/03 09:06:36;;;;;;;9.00;8.00;;;;;;;10.36;53.11;101828.41;107002;1275;24329;-49
2023/03/03 09:09:05;;;;;;;10.80;8.40;;;;;;;10.37;52.99;101828.91;107020;1272;25359;-48
2023/03/03 09:11:34;;;;;;;10.60;8.60;;;;;;;10.36;52.71;101825.11;107032;1272;25350;-48
2023/03/03 09:14:15;;;;;;;9.40;8.40;;;;;;;10.37;52.87;101821.98;106806;1272;25359;-47
2023/03/03 09:16:53;;;;;;;9.90;7.70;;;;;;;10.38;52.85;101817.64;107045;1261;24621;-47
2023/03/03 09:19:33;;;;;;;11.40;9.10;;;;;;;10.41;52.76;101814.68;107047;1270;26573;-47
2023/03/03 09:22:21;;;;;;;11.30;8.00;;;;;;;10.44;52.60;101815.54;107146;1269;24332;-47
2023/03/03 09:24:52;;;;;;;11.10;7.70;;;;;;;10.48;52.54;101811.70;107007;1269;23153;-48
2023/03/03 09:27:31;;;;;;;9.50;8.50;;;;;;;10.53;52.58;101814.11;106960;1272;22549;-47
2023/03/03 09:30:23;;;;;;;8.60;7.50;;;;;;;10.57;52.26;101811.84;105817;1270;1003257;-48
2023/03/03 09:32:52;;;;;;;9.80;8.10;;;;;;;10.58;52.01;101806.27;106387;1282;25360;-48
2023/03/03 09:35:36;;;;;;;10.00;8.10;;;;;;;10.56;51.90;101802.48;106501;1276;22519;-48
2023/03/03 09:38:32;;;;;;;9.20;7.20;;;;;;;10.51;51.77;101798.51;106490;1275;22647;-49
2023/03/03 09:41:00;;;;;;;8.60;7.70;;;;;;;10.46;51.58;101798.70;106477;1275;24316;-48
2023/03/03 09:43:48;;;;;;;10.20;7.60;;;;;;;10.41;51.78;101794.39;106499;1274;23188;-48
2023/03/03 09:46:35;;;;;;;9.00;7.60;;;;;;;10.38;52.11;101791.11;106434;1275;24346;-48
2023/03/03 09:49:19;;;;;;;8.90;7.70;;;;;;;10.38;52.19;101791.29;106372;1282;24214;-47
2023/03/03 09:51:59;;;;;;;12.20;8.20;;;;;;;10.38;52.21;101786.95;106806;1282;23886;-48
2023/03/03 09:54:54;;;;;;;9.20;7.50;;;;;;;10.38;52.13;101782.95;106307;1276;1003473;-48
2023/03/03 09:57:42;;;;;;;8.70;7.80;;;;;;;10.37;52.03;101777.06;106302;1276;22649;-48
2023/03/03 10:00:14;;;;;;;8.50;7.20;;;;;;;10.36;52.16;101773.95;106478;1276;24025;-48
2023/03/03 10:02:52;;;;;;;8.30;7.20;;;;;;;10.35;52.06;101767.53;106430;1275;22538;-48
2023/03/03 10:05:50;;;;;;;9.70;7.50;;;;;;;10.36;52.38;101768.05;106415;1282;25500;-48
2023/03/03 10:08:35;;;;;;;9.50;7.90;;;;;;;10.39;52.39;101761.44;106425;1278;22551;-48
2023/03/03 10:11:09;;;;;;;12.90;9.00;;;;;;;10.44;52.43;101761.41;106943;1269;22523;-48
2023/03/03 10:14:11;;;;;;;8.30;7.00;;;;;;;10.47;52.28;101754.45;106285;1267;1002851;-48
2023/03/03 10:16:48;;;;;;;9.30;7.00;;;;;;;10.51;52.15;101751.66;106900;1277;25568;-48
2023/03/03 10:19:36;;;;;;;9.00;7.50;;;;;;;10.52;52.16;101746.80;106386;1276;24248;-48
2023/03/03 10:22:11;;;;;;;8.40;7.50;;;;;;;10.54;52.35;101746.27;105684;1276;1003085;-49
2023/03/03 10:24:51;;;;;;;8.80;7.00;;;;;;;10.55;52.30;101742.80;106375;1284;25561;-48
2023/03/03 10:27:45;;;;;;;9.60;7.60;;;;;;;10.56;52.13;101734.46;106340;1277;22979;-48
2023/03/03 10:30:17;;;;;;;8.70;7.70;;;;;;;10.58;52.30;101728.56;106277;1276;25396;-47
2023/03/03 10:33:18;;;;;;;8.40;7.10;;;;;;;10.61;52.33;101723.32;106283;1284;25339;-47
2023/03/03 10:36:07;;;;;;;8.50;7.70;;;;;;;10.65;52.14;101717.39;106770;1275;23254;-49
2023/03/03 10:39:04;;;;;;;8.20;7.10;;;;;;;10.69;51.96;101712.85;106046;1277;1002683;-48
2023/03/03 10:42:27;;;;;;;9.90;7.80;;;;;;;10.71;51.91;101706.60;106257;1284;25356;-48
2023/03/03 10:45:37;;;;;;;9.40;7.50;;;;;;;10.72;51.98;101699.64;105753;1287;22585;-48
2023/03/03 10:48:24;;;;;;;11.90;7.70;;;;;;;10.73;51.69;101701.55;106499;1277;25351;-48
2023/03/03 10:51:24;;;;;;;8.00;6.90;;;;;;;10.71;51.82;101694.62;105989;1283;22543;-48
2023/03/03 10:54:14;;;;;;;8.60;7.50;;;;;;;10.69;52.00;101685.27;106110;1279;25800;-48
2023/03/03 10:57:05;;;;;;;9.90;7.80;;;;;;;10.70;52.12;101685.95;106485;1276;25492;-48
2023/03/03 10:59:54;;;;;;;8.70;6.80;;;;;;;10.73;52.30;101684.55;106334;1275;22546;-47
2023/03/03 11:02:35;;;;;;;11.40;7.40;;;;;;;10.77;52.10;101683.29;106428;1283;25555;-49
2023/03/03 11:05:28;;;;;;;8.40;7.20;;;;;;;10.82;51.92;101676.83;105647;1283;1003621;-49
2023/03/03 11:08:02;;;;;;;7.80;6.70;;;;;;;10.86;51.76;101670.89;106352;1281;22527;-49
2023/03/03 11:10:57;;;;;;;9.90;7.50;;;;;;;10.88;51.55;101667.74;106204;1276;24248;-48
2023/03/03 11:13:39;;;;;;;9.80;7.10;;;;;;;10.88;51.50;101661.50;106376;1276;25339;-47
2023/03/03 11:16:37;;;;;;;8.60;7.10;;;;;;;10.86;51.60;101658.05;106795;1281;25322;-48
2023/03/03 11:19:12;;;;;;;8.90;6.90;;;;;;;10.84;51.56;101653.20;106438;1276;23329;-48
2023/03/03 11:21:52;;;;;;;8.10;7.00;;;;;;;10.82;51.51;101651.65;106652;1273;25343;-48
2023/03/03 11:24:23;;;;;;;9.30;7.40;;;;;;;10.82;51.63;101646.46;106268;1272;1002784;-48
2023/03/03 11:27:02;;;;;;;;;;;;;;;10.83;51.65;101646.61;107021;1269;25386;-48
2023/03/03 11:30:06;;;;;;;10.30;7.90;;;;;;;10.85;51.66;101642.42;107080;1273;22525;-47
2023/03/03 11:32:48;;;;;;;8.60;7.50;;;;;;;10.87;51.31;101632.87;106969;1275;22520;-49
2023/03/03 11:35:19;;;;;;;;;;;;;;;10.84;51.27;101627.34;106966;1275;24203;-48
2023/03/03 11:37:53;;;;;;;9.00;7.20;;;;;;;10.78;51.39;101626.19;107057;1268;23889;-48
2023/03/03 11:40:35;;;;;;;10.10;8.00;;;;;;;10.67;51.88;101619.50;107221;1275;22514;-48
2023/03/03 11:43:17;;;;;;;12.20;8.60;;;;;;;10.66;51.92;101615.19;106873;1276;22633;-48
2023/03/03 11:46:12;;;;;;;12.00;8.30;;;;;;;10.60;52.06;101616.62;107104;1270;25477;-48